Startpagina
METAR-TAF:

METAR-TAF

Vliegvelden :

Tulcán, Ecuador

breedte: 00-48-34N, lengte: 077-42-29W, hoogte: 2941 m

Actueel weer

Dit bericht is 11 uur en het 12 minuten geleden gemaakt, om 21:00 UTC
Wind 2 kt uit het oosten
Temperatuur 17°C
Vochtigheid 59%
Druk 1029 hPa
Zicht 10 km of meer
Verspreide wolken op 2000 ft

METAR: SETU 202100Z 08002KT 9999 SCT020 17/09 Q1029

Tijdstip: 03:12 (08:12 UTC)


TAF: ontbreekt

Waarnemingen en weersverwachtingen van meer dan 4000 vliegvelden (METAR en TAF).

De beschikbare stations zijn de gele en rode punten op de kaart.

Ga met uw muis naar het station om de naam te zien.

Klik dan om waarnemingen en weersverwachtingen te zien.

kaart wijzigen: klik op de groene knoppen met een zwart kruis om in te zoomen, op de groene knop met een streepje om uit te zoomen of op de groene pijlen voor aangrenzende kaarten.


METAR-TAF: